RYR4PY LPPR-EGSS
Flight info
| Callsign | RYR4PY |
|---|---|
| Flight time | N/A |
| Altitude | 24000 |
| Route | TURON P600 ASDEB/N0462F340 DCT LOTEE DCT OZNOH DCT ARTIV DCT DIKRO UM185 DESNA/N0411F240 M185 TELTU |
| Aircraft | B738/M-SDE2E3FGHIRWXY/LB1 |
Departure
| Time | 2026-05-04 19:52 |
|---|---|
| Airport | Francisco de Sá Carneiro Airport (LPPR) |
Arrival
| Time | N/A |
|---|---|
| Airport | London Stansted Airport (EGSS) |
| Time | Latitude | Longitude | Altitude | Speed | Heading |
|---|---|---|---|---|---|
| 2026-05-04 19:15 | 41.23640 | -8.67245 | 244 ft | 0 kts | 79° |
| 2026-05-04 19:44 | 41.23639 | -8.67245 | 244 ft | 1 kts | 79° |
| 2026-05-04 19:44 | 41.23635 | -8.67275 | 233 ft | 4 kts | 79° |
| 2026-05-04 19:45 | 41.23631 | -8.67304 | 242 ft | 4 kts | 95° |
| 2026-05-04 19:45 | 41.23640 | -8.67331 | 241 ft | 4 kts | 154° |
| 2026-05-04 19:45 | 41.23665 | -8.67340 | 241 ft | 3 kts | 169° |
| 2026-05-04 19:45 | 41.23668 | -8.67341 | 241 ft | 1 kts | 169° |
| 2026-05-04 19:48 | 41.23650 | -8.67336 | 241 ft | 6 kts | 169° |
| 2026-05-04 19:49 | 41.23606 | -8.67330 | 241 ft | 6 kts | 187° |
| 2026-05-04 19:49 | 41.23562 | -8.67355 | 240 ft | 7 kts | 211° |
| 2026-05-04 19:49 | 41.23507 | -8.67383 | 239 ft | 10 kts | 181° |
| 2026-05-04 19:49 | 41.23420 | -8.67368 | 239 ft | 15 kts | 170° |
| 2026-05-04 19:50 | 41.23335 | -8.67428 | 236 ft | 15 kts | 249° |
| 2026-05-04 19:50 | 41.23316 | -8.67535 | 234 ft | 10 kts | 257° |
| 2026-05-04 19:50 | 41.23305 | -8.67605 | 235 ft | 6 kts | 258° |
| 2026-05-04 19:50 | 41.23299 | -8.67648 | 239 ft | 5 kts | 260° |
| 2026-05-04 19:51 | 41.23302 | -8.67720 | 237 ft | 8 kts | 314° |
| 2026-05-04 19:51 | 41.23400 | -8.67757 | 236 ft | 34 kts | 348° |
| 2026-05-04 19:51 | 41.23875 | -8.67882 | 222 ft | 104 kts | 349° |
| 2026-05-04 19:51 | 41.24782 | -8.68114 | 208 ft | 160 kts | 348° |
| 2026-05-04 19:52 | 41.25935 | -8.68382 | 735 ft | 171 kts | 349° |
| 2026-05-04 19:52 | 41.27073 | -8.68650 | 1710 ft | 162 kts | 346° |
| 2026-05-04 19:52 | 41.28208 | -8.68943 | 2329 ft | 177 kts | 346° |
| 2026-05-04 19:52 | 41.29513 | -8.69295 | 2601 ft | 204 kts | 347° |
| 2026-05-04 19:53 | 41.30965 | -8.69687 | 2895 ft | 222 kts | 347° |
| 2026-05-04 19:53 | 41.32527 | -8.70109 | 3265 ft | 239 kts | 346° |
| 2026-05-04 19:53 | 41.34209 | -8.70563 | 3837 ft | 250 kts | 346° |
| 2026-05-04 19:53 | 41.35920 | -8.71023 | 4717 ft | 251 kts | 346° |
| 2026-05-04 19:54 | 41.37627 | -8.71483 | 5532 ft | 255 kts | 346° |
| 2026-05-04 19:54 | 41.39385 | -8.71958 | 6386 ft | 257 kts | 346° |
| 2026-05-04 19:54 | 41.41148 | -8.72435 | 7203 ft | 259 kts | 346° |
| 2026-05-04 19:54 | 41.42964 | -8.72670 | 7914 ft | 269 kts | 4° |